createdAt,value
2023-03-10T00:00:40.247Z,0.30
2023-03-10T00:03:07.199Z,0.20
2023-03-10T00:05:34.245Z,0.10
2023-03-10T00:08:01.437Z,0.10
2023-03-10T00:10:28.537Z,0.30
2023-03-10T00:12:55.906Z,0.50
2023-03-10T00:15:23.500Z,0.60
2023-03-10T00:17:50.719Z,0.60
2023-03-10T00:20:18.060Z,0.70
2023-03-10T00:22:44.987Z,0.70
2023-03-10T00:25:12.640Z,0.60
2023-03-10T00:27:39.682Z,0.70
2023-03-10T00:30:07.539Z,0.70
2023-03-10T00:32:37.230Z,0.70
2023-03-10T00:35:04.936Z,0.70
2023-03-10T00:37:31.840Z,0.70
2023-03-10T00:39:59.051Z,0.70
2023-03-10T00:42:25.977Z,0.70
2023-03-10T00:44:53.276Z,0.70
2023-03-10T00:47:20.180Z,0.40
2023-03-10T00:49:48.220Z,0.30
2023-03-10T00:52:15.133Z,0.20
2023-03-10T00:54:42.436Z,0.20
2023-03-10T00:57:09.768Z,0.20
2023-03-10T00:59:49.388Z,0.30
2023-03-10T01:02:17.293Z,0.20
2023-03-10T01:04:44.453Z,0.10
2023-03-10T01:07:11.475Z,0.00
2023-03-10T01:09:38.427Z,0.00
2023-03-10T01:12:05.625Z,0.00
2023-03-10T01:14:32.560Z,0.00
2023-03-10T01:16:59.665Z,0.00
2023-03-10T01:19:26.609Z,0.10
2023-03-10T01:21:53.576Z,0.10
2023-03-10T01:24:20.572Z,0.10
2023-03-10T01:26:47.474Z,0.10
2023-03-10T01:29:14.420Z,0.10
2023-03-10T01:31:42.193Z,0.10
2023-03-10T01:34:09.235Z,0.00
2023-03-10T01:36:36.314Z,-0.20
2023-03-10T01:39:03.648Z,-0.20
2023-03-10T01:41:30.744Z,-0.10
2023-03-10T01:43:58.094Z,0.00
2023-03-10T01:46:28.154Z,0.10
2023-03-10T01:49:08.182Z,0.10
2023-03-10T01:51:38.129Z,0.10
2023-03-10T01:54:08.844Z,0.10
2023-03-10T01:56:37.837Z,0.10
2023-03-10T01:59:05.282Z,0.00
2023-03-10T02:01:32.928Z,0.00
2023-03-10T02:04:09.059Z,0.00
2023-03-10T02:06:37.584Z,0.00
2023-03-10T02:09:05.746Z,-0.10
2023-03-10T02:11:33.548Z,-0.20
2023-03-10T02:14:04.630Z,-0.20
2023-03-10T02:16:31.828Z,-0.20
2023-03-10T02:18:59.259Z,-0.20
2023-03-10T02:21:45.654Z,-0.20
2023-03-10T02:24:19.067Z,-0.20
2023-03-10T02:26:54.830Z,-0.20
2023-03-10T02:29:30.919Z,-0.20
2023-03-10T02:31:59.857Z,-0.10
2023-03-10T02:34:27.947Z,-0.10
2023-03-10T02:36:54.891Z,-0.10
2023-03-10T02:39:22.087Z,-0.20
2023-03-10T02:41:49.703Z,-0.20
2023-03-10T02:44:20.598Z,-0.20
2023-03-10T02:46:48.062Z,-0.20
2023-03-10T02:49:17.172Z,-0.20
2023-03-10T02:51:46.363Z,-0.20
2023-03-10T02:54:14.480Z,-0.10
2023-03-10T02:56:42.987Z,-0.20
2023-03-10T02:59:11.281Z,-0.20
2023-03-10T03:01:38.255Z,-0.30
2023-03-10T03:04:05.715Z,-0.40
2023-03-10T03:06:32.715Z,-0.50
2023-03-10T03:08:59.739Z,-0.50
2023-03-10T03:11:26.772Z,-0.60
2023-03-10T03:13:54.042Z,-0.60
2023-03-10T03:16:21.199Z,-0.60
2023-03-10T03:18:48.359Z,-0.70
2023-03-10T03:21:17.349Z,-0.80
2023-03-10T03:23:46.223Z,-0.80
2023-03-10T03:26:22.084Z,-0.70
2023-03-10T03:28:49.229Z,-0.80
2023-03-10T03:31:18.899Z,-0.70
2023-03-10T03:33:46.024Z,-0.50
2023-03-10T03:36:13.504Z,-0.50
2023-03-10T03:38:40.752Z,-0.50
2023-03-10T03:41:08.766Z,-0.70
2023-03-10T03:43:35.745Z,-0.70
2023-03-10T03:46:02.871Z,-0.80
2023-03-10T03:48:29.946Z,-0.80
2023-03-10T03:50:56.842Z,-0.90
2023-03-10T03:53:23.723Z,-0.80
2023-03-10T03:55:51.408Z,-0.90
2023-03-10T03:58:18.427Z,-0.90
2023-03-10T04:00:45.372Z,-0.90
2023-03-10T04:03:12.567Z,-0.90
2023-03-10T04:05:39.606Z,-1.00
2023-03-10T04:08:06.740Z,-0.90
2023-03-10T04:10:33.890Z,-1.00
2023-03-10T04:13:00.812Z,-1.00
2023-03-10T04:15:28.198Z,-1.00
2023-03-10T04:17:57.738Z,-0.90
2023-03-10T04:20:25.490Z,-0.80
2023-03-10T04:22:53.113Z,-0.70
2023-03-10T04:25:20.130Z,-0.70
2023-03-10T04:27:47.681Z,-0.70
2023-03-10T04:30:15.222Z,-0.70
2023-03-10T04:32:42.231Z,-0.70
2023-03-10T04:35:11.450Z,-0.70
2023-03-10T04:37:38.528Z,-0.60
2023-03-10T04:40:09.450Z,-0.70
2023-03-10T04:42:36.539Z,-0.50
2023-03-10T04:45:03.785Z,-0.40
2023-03-10T04:47:30.710Z,-0.40
2023-03-10T04:49:57.674Z,-0.40
2023-03-10T04:52:24.651Z,-0.40
2023-03-10T04:54:51.632Z,-0.40
2023-03-10T04:57:18.627Z,-0.40
2023-03-10T04:59:45.537Z,-0.40
2023-03-10T05:02:12.534Z,-0.40
2023-03-10T05:04:39.705Z,-0.40
2023-03-10T05:07:06.913Z,-0.70
2023-03-10T05:09:37.953Z,-0.70
2023-03-10T05:12:06.719Z,-0.70
2023-03-10T05:14:33.859Z,-0.60
2023-03-10T05:17:00.973Z,-0.50
2023-03-10T05:19:28.911Z,-0.40
2023-03-10T05:21:56.094Z,-0.50
2023-03-10T05:24:23.050Z,-0.40
2023-03-10T05:26:49.994Z,-0.60
2023-03-10T05:29:16.935Z,-0.50
2023-03-10T05:31:43.935Z,-0.50
2023-03-10T05:34:11.018Z,-0.40
2023-03-10T05:36:38.060Z,-0.40
2023-03-10T05:39:06.154Z,-0.50
2023-03-10T05:41:33.952Z,-0.40
2023-03-10T05:44:00.889Z,-0.40
2023-03-10T05:46:28.540Z,-0.40
2023-03-10T05:48:57.077Z,-0.40
2023-03-10T05:51:24.116Z,-0.40
2023-03-10T05:53:51.042Z,-0.50
2023-03-10T05:56:20.016Z,-0.50
2023-03-10T05:58:48.082Z,-0.60
2023-03-10T06:01:15.170Z,-0.70
2023-03-10T06:03:42.362Z,-0.70
2023-03-10T06:06:09.426Z,-0.70
2023-03-10T06:08:36.715Z,-0.70
2023-03-10T06:11:05.097Z,-0.80
2023-03-10T06:13:32.413Z,-0.80
2023-03-10T06:16:05.175Z,-0.90
2023-03-10T06:18:33.349Z,-0.90
2023-03-10T06:21:00.588Z,-1.10
2023-03-10T06:23:27.682Z,-1.10
2023-03-10T06:26:00.793Z,-1.10
2023-03-10T06:28:33.114Z,-1.10
2023-03-10T06:31:02.147Z,-1.10
2023-03-10T06:33:30.064Z,-1.10
2023-03-10T06:35:57.656Z,-1.10
2023-03-10T06:38:25.636Z,-1.10
2023-03-10T06:40:52.874Z,-1.20
2023-03-10T06:43:19.886Z,-1.20
2023-03-10T06:45:47.630Z,-1.20
2023-03-10T06:48:15.222Z,-1.20
2023-03-10T06:50:48.274Z,-1.30
2023-03-10T06:53:19.753Z,-1.30
2023-03-10T06:55:58.212Z,-1.40
2023-03-10T06:58:25.336Z,-1.40
2023-03-10T07:00:52.832Z,-1.40
2023-03-10T07:03:20.430Z,-1.40
2023-03-10T07:05:47.996Z,-1.40
2023-03-10T07:08:14.908Z,-1.40
2023-03-10T07:10:41.877Z,-1.40
2023-03-10T07:13:09.530Z,-1.40
2023-03-10T07:15:39.475Z,-1.40
2023-03-10T07:18:06.800Z,-1.40
2023-03-10T07:20:33.937Z,-1.30
2023-03-10T07:23:00.870Z,-1.40
2023-03-10T07:25:27.877Z,-1.30
2023-03-10T07:27:54.770Z,-1.40
2023-03-10T07:30:21.769Z,-1.20
2023-03-10T07:32:53.276Z,-1.00
2023-03-10T07:35:20.243Z,-1.10
2023-03-10T07:37:47.154Z,-1.10
2023-03-10T07:40:14.174Z,-1.00
2023-03-10T07:42:43.477Z,-0.90
2023-03-10T07:45:10.750Z,-0.80
2023-03-10T07:47:37.697Z,-0.80
2023-03-10T07:50:04.878Z,-0.70
2023-03-10T07:52:31.796Z,-0.80
2023-03-10T07:54:58.725Z,-0.70
2023-03-10T07:57:25.669Z,-0.40
2023-03-10T07:59:52.590Z,-0.20
2023-03-10T08:02:19.787Z,0.00
2023-03-10T08:04:46.860Z,0.10
2023-03-10T08:07:14.161Z,0.20
2023-03-10T08:09:41.461Z,0.20
2023-03-10T08:12:08.858Z,0.30
2023-03-10T08:14:35.813Z,0.30
2023-03-10T08:17:02.897Z,0.50
2023-03-10T08:19:29.815Z,0.40
2023-03-10T08:21:57.825Z,0.60
2023-03-10T08:24:25.732Z,0.80
2023-03-10T08:26:52.734Z,1.00
2023-03-10T08:29:20.053Z,1.30
2023-03-10T08:31:47.715Z,1.80
2023-03-10T08:34:16.336Z,2.00
2023-03-10T08:36:43.859Z,2.20
2023-03-10T08:39:12.520Z,2.60
2023-03-10T08:41:44.784Z,2.70
2023-03-10T08:44:15.469Z,2.40
2023-03-10T08:46:46.748Z,2.10
2023-03-10T08:49:16.237Z,1.60
2023-03-10T08:51:43.536Z,1.40
2023-03-10T08:54:16.388Z,1.20
2023-03-10T08:56:43.358Z,0.90
2023-03-10T08:59:10.455Z,0.70
2023-03-10T09:01:37.995Z,0.70
2023-03-10T09:04:07.022Z,1.00
2023-03-10T09:06:34.459Z,1.70
2023-03-10T09:09:02.254Z,1.90
2023-03-10T09:11:34.269Z,2.10
2023-03-10T09:14:02.553Z,2.10
2023-03-10T09:16:30.243Z,2.30
2023-03-10T09:18:58.275Z,2.60
2023-03-10T09:21:26.645Z,2.90
2023-03-10T09:23:53.636Z,3.00
2023-03-10T09:26:21.425Z,3.20
2023-03-10T09:28:51.015Z,3.50
2023-03-10T09:31:24.546Z,3.40
2023-03-10T09:33:51.935Z,3.40
2023-03-10T09:36:19.823Z,3.70
2023-03-10T09:38:46.909Z,3.80
2023-03-10T09:41:22.473Z,4.00
2023-03-10T09:44:15.397Z,4.00
2023-03-10T09:47:08.372Z,4.00
2023-03-10T09:49:56.437Z,4.10
2023-03-10T09:53:07.286Z,4.00
2023-03-10T09:55:47.540Z,3.90
2023-03-10T09:58:30.532Z,4.10
2023-03-10T10:01:00.001Z,4.40
2023-03-10T10:03:52.627Z,4.40
2023-03-10T10:06:32.433Z,4.20
2023-03-10T10:09:05.436Z,4.70
2023-03-10T10:11:34.677Z,4.50
2023-03-10T10:14:26.203Z,4.50
2023-03-10T10:17:28.147Z,4.60
2023-03-10T10:19:55.136Z,4.60
2023-03-10T10:22:26.892Z,4.40
2023-03-10T10:25:08.668Z,4.60
2023-03-10T10:27:37.363Z,4.70
2023-03-10T10:30:29.020Z,4.60
2023-03-10T10:32:57.387Z,4.40
2023-03-10T10:35:27.232Z,4.50
2023-03-10T10:38:25.425Z,4.60
2023-03-10T10:41:08.044Z,4.70
2023-03-10T10:43:44.504Z,4.90
2023-03-10T10:46:14.352Z,4.90
2023-03-10T10:48:46.907Z,4.90
2023-03-10T10:51:29.992Z,5.10
2023-03-10T10:53:59.330Z,5.40
2023-03-10T10:56:30.919Z,5.40
2023-03-10T10:59:07.817Z,5.50
2023-03-10T11:01:59.001Z,5.80
2023-03-10T11:04:28.757Z,6.00
2023-03-10T11:07:17.800Z,5.90
2023-03-10T11:09:44.784Z,5.90
2023-03-10T11:12:34.203Z,6.20
2023-03-10T11:15:25.763Z,6.60
2023-03-10T11:17:56.138Z,6.80
2023-03-10T11:20:41.074Z,6.80
2023-03-10T11:23:22.862Z,6.90
2023-03-10T11:25:57.061Z,7.00
2023-03-10T11:28:44.282Z,7.60
2023-03-10T11:31:36.760Z,7.80
2023-03-10T11:34:23.488Z,8.00
2023-03-10T11:37:31.382Z,8.10
2023-03-10T11:40:19.946Z,8.30
2023-03-10T11:43:01.808Z,8.60
2023-03-10T11:45:35.526Z,8.60
2023-03-10T11:48:29.318Z,8.50
2023-03-10T11:51:01.640Z,8.50
2023-03-10T11:53:45.689Z,8.90
2023-03-10T11:56:17.241Z,9.40
2023-03-10T11:58:55.389Z,9.50
2023-03-10T12:11:43.303Z,9.30
2023-03-10T12:14:14.363Z,10.10
2023-03-10T12:16:42.436Z,10.60
2023-03-10T12:19:09.461Z,10.20
2023-03-10T12:21:36.475Z,9.60
2023-03-10T12:24:05.119Z,9.70
2023-03-10T12:26:38.093Z,9.70
2023-03-10T12:29:35.862Z,9.20
2023-03-10T12:32:03.268Z,9.40
2023-03-10T12:34:32.495Z,9.50
2023-03-10T12:37:09.114Z,9.80
2023-03-10T12:39:44.256Z,10.00
2023-03-10T12:42:35.078Z,9.80
2023-03-10T12:45:22.067Z,10.00
2023-03-10T12:47:54.320Z,9.80
2023-03-10T12:50:45.892Z,10.00
2023-03-10T12:53:21.838Z,10.10
2023-03-10T12:56:13.540Z,10.10
2023-03-10T12:58:58.689Z,10.30
2023-03-10T13:01:31.211Z,10.40
2023-03-10T13:03:58.735Z,10.30
2023-03-10T13:06:40.285Z,10.90
2023-03-10T13:09:36.644Z,11.30
2023-03-10T13:12:25.362Z,11.10
2023-03-10T13:14:56.727Z,11.00
2023-03-10T13:17:29.781Z,10.90
2023-03-10T13:20:11.632Z,10.50
2023-03-10T13:22:38.940Z,10.80
2023-03-10T13:25:09.888Z,11.20
2023-03-10T13:27:36.938Z,11.30
2023-03-10T13:30:22.909Z,11.50
2023-03-10T13:33:01.474Z,11.30
2023-03-10T13:35:38.021Z,11.20
2023-03-10T13:38:21.036Z,10.80
2023-03-10T13:41:03.270Z,10.00
2023-03-10T13:43:39.295Z,8.80
2023-03-10T13:46:14.475Z,8.50
2023-03-10T13:48:42.709Z,8.50
2023-03-10T13:51:24.806Z,8.90
2023-03-10T13:53:55.439Z,9.10
2023-03-10T13:56:37.196Z,9.20
2023-03-10T13:59:06.460Z,9.40
2023-03-10T14:01:37.262Z,9.30
2023-03-10T14:04:08.722Z,8.60
2023-03-10T14:06:37.280Z,8.90
2023-03-10T14:09:24.937Z,9.20
2023-03-10T14:11:52.353Z,9.80
2023-03-10T14:14:32.158Z,9.70
2023-03-10T14:17:05.341Z,9.90
2023-03-10T14:19:43.318Z,10.00
2023-03-10T14:22:32.330Z,10.00
2023-03-10T14:25:01.263Z,10.20
2023-03-10T14:27:28.553Z,10.10
2023-03-10T14:30:00.245Z,10.00
2023-03-10T14:32:27.697Z,9.90
2023-03-10T14:34:54.668Z,9.80
2023-03-10T14:37:21.643Z,10.00
2023-03-10T14:39:48.686Z,10.00
2023-03-10T14:42:27.030Z,10.10
2023-03-10T14:44:54.041Z,10.10
2023-03-10T14:47:21.153Z,10.30
2023-03-10T14:49:49.015Z,9.90
2023-03-10T14:52:17.845Z,10.00
2023-03-10T14:54:45.363Z,10.20
2023-03-10T14:57:14.970Z,10.20
2023-03-10T14:59:41.891Z,10.30
2023-03-10T15:02:35.328Z,10.00
2023-03-10T15:05:02.512Z,10.20
2023-03-10T15:07:30.072Z,10.10
2023-03-10T15:10:10.588Z,10.10
2023-03-10T15:12:39.694Z,10.10
2023-03-10T15:15:19.298Z,10.40
2023-03-10T15:17:46.566Z,10.00
2023-03-10T15:20:22.271Z,9.70
2023-03-10T15:22:50.418Z,9.20
2023-03-10T15:25:19.934Z,8.60
2023-03-10T15:27:48.571Z,8.30
2023-03-10T15:30:20.038Z,8.50
2023-03-10T15:32:47.393Z,8.40
2023-03-10T15:35:15.994Z,8.20
2023-03-10T15:37:43.984Z,7.80
2023-03-10T15:40:15.575Z,7.70
2023-03-10T15:42:46.110Z,7.60
2023-03-10T15:45:14.951Z,7.70
2023-03-10T15:47:42.206Z,7.80
2023-03-10T15:50:10.785Z,7.60
2023-03-10T15:52:38.499Z,7.40
2023-03-10T15:55:06.615Z,7.20
2023-03-10T15:57:33.747Z,7.20
2023-03-10T16:00:00.645Z,7.20
2023-03-10T16:02:27.655Z,7.10
2023-03-10T16:04:54.674Z,7.30
2023-03-10T16:07:21.805Z,7.00
2023-03-10T16:09:48.716Z,6.70
2023-03-10T16:12:15.639Z,6.50
2023-03-10T16:14:42.546Z,6.30
2023-03-10T16:17:11.635Z,6.10
2023-03-10T16:19:38.982Z,5.80
2023-03-10T16:22:06.043Z,5.70
2023-03-10T16:24:33.169Z,5.50
2023-03-10T16:27:00.385Z,5.40
2023-03-10T16:29:27.415Z,5.20
2023-03-10T16:31:54.632Z,5.10
2023-03-10T16:34:21.790Z,5.10
2023-03-10T16:36:50.868Z,5.10
2023-03-10T16:39:18.069Z,5.20
2023-03-10T16:41:45.064Z,5.00
2023-03-10T16:44:13.481Z,5.00
2023-03-10T16:46:40.851Z,5.10
2023-03-10T16:49:12.854Z,5.00
2023-03-10T16:51:42.620Z,5.20
2023-03-10T16:54:16.364Z,5.20
2023-03-10T16:56:45.613Z,5.20
2023-03-10T16:59:18.605Z,5.50
2023-03-10T17:01:46.219Z,5.30
2023-03-10T17:04:13.350Z,5.50
2023-03-10T17:06:41.365Z,5.50
2023-03-10T17:09:11.064Z,5.70
2023-03-10T17:11:41.435Z,5.70
2023-03-10T17:14:11.845Z,5.70
2023-03-10T17:16:39.220Z,5.60
2023-03-10T17:19:13.538Z,5.30
2023-03-10T17:21:45.998Z,4.80
2023-03-10T17:24:14.785Z,4.50
2023-03-10T17:26:42.129Z,4.20
2023-03-10T17:29:09.811Z,4.20
2023-03-10T17:31:37.593Z,3.90
2023-03-10T17:34:07.637Z,3.80
2023-03-10T17:36:35.088Z,3.50
2023-03-10T17:39:04.079Z,3.40
2023-03-10T17:41:33.324Z,3.30
2023-03-10T17:44:00.422Z,3.10
2023-03-10T17:46:29.520Z,3.00
2023-03-10T17:48:57.457Z,3.00
2023-03-10T17:51:29.825Z,2.90
2023-03-10T17:53:58.526Z,2.80
2023-03-10T17:56:26.289Z,2.60
2023-03-10T17:58:54.844Z,2.60
2023-03-10T18:01:31.714Z,2.50
2023-03-10T18:04:00.365Z,2.30
2023-03-10T18:06:30.369Z,2.20
2023-03-10T18:08:59.475Z,2.20
2023-03-10T18:11:28.231Z,2.20
2023-03-10T18:13:55.551Z,2.10
2023-03-10T18:16:29.308Z,2.10
2023-03-10T18:18:57.380Z,2.10
2023-03-10T18:21:25.282Z,2.00
2023-03-10T18:23:53.117Z,2.00
2023-03-10T18:26:22.800Z,1.90
2023-03-10T18:28:49.698Z,1.90
2023-03-10T18:31:23.218Z,1.80
2023-03-10T18:33:50.263Z,1.90
2023-03-10T18:36:18.888Z,2.00
2023-03-10T18:38:47.352Z,2.00
2023-03-10T18:41:14.636Z,2.00
2023-03-10T18:43:41.595Z,1.90
2023-03-10T18:46:08.599Z,2.00
2023-03-10T18:48:35.551Z,1.90
2023-03-10T18:51:02.889Z,2.00
2023-03-10T18:53:30.112Z,2.10
2023-03-10T18:55:59.332Z,2.30
2023-03-10T18:58:26.773Z,2.30
2023-03-10T19:00:53.786Z,2.30
2023-03-10T19:03:20.755Z,2.30
2023-03-10T19:05:54.230Z,2.00
2023-03-10T19:08:25.703Z,1.80
2023-03-10T19:10:57.793Z,1.60
2023-03-10T19:13:26.258Z,1.50
2023-03-10T19:15:53.428Z,1.30
2023-03-10T19:18:20.732Z,1.20
2023-03-10T19:20:47.725Z,1.20
2023-03-10T19:23:15.164Z,1.00
2023-03-10T19:25:42.251Z,1.10
2023-03-10T19:28:09.483Z,1.00
2023-03-10T19:30:36.789Z,0.90
2023-03-10T19:33:03.766Z,0.90
2023-03-10T19:35:30.839Z,1.10
2023-03-10T19:37:57.912Z,1.10
2023-03-10T19:40:24.896Z,1.20
2023-03-10T19:42:51.889Z,1.10
2023-03-10T19:45:19.397Z,1.30
2023-03-10T19:47:47.276Z,1.30
2023-03-10T19:50:16.473Z,1.20
2023-03-10T19:52:45.326Z,1.10
2023-03-10T19:55:22.967Z,1.10
2023-03-10T19:57:51.573Z,1.00
2023-03-10T20:00:25.655Z,1.00
2023-03-10T20:02:54.253Z,1.20
2023-03-10T20:05:21.889Z,1.10
2023-03-10T20:07:49.002Z,1.10
2023-03-10T20:10:17.541Z,1.10
2023-03-10T20:12:47.242Z,1.10
2023-03-10T20:15:14.826Z,1.00
2023-03-10T20:17:41.814Z,0.80
2023-03-10T20:20:12.497Z,0.90
2023-03-10T20:22:40.893Z,0.80
2023-03-10T20:25:09.981Z,0.80
2023-03-10T20:27:37.955Z,0.80
2023-03-10T20:30:29.502Z,0.80
2023-03-10T20:32:58.299Z,0.70
2023-03-10T20:35:25.896Z,0.80
2023-03-10T20:37:52.933Z,0.80
2023-03-10T20:40:24.015Z,0.70
2023-03-10T20:42:52.297Z,0.70
2023-03-10T20:45:19.407Z,0.70
2023-03-10T20:47:48.032Z,0.70
2023-03-10T20:50:16.510Z,0.70
2023-03-10T20:52:43.967Z,0.70
2023-03-10T20:55:23.136Z,0.70
2023-03-10T20:57:52.748Z,0.70
2023-03-10T21:00:21.806Z,0.70
2023-03-10T21:02:52.224Z,0.50
2023-03-10T21:05:22.367Z,0.30
2023-03-10T21:07:50.269Z,0.10
2023-03-10T21:10:18.365Z,0.10
2023-03-10T21:12:45.556Z,0.10
2023-03-10T21:15:15.298Z,0.20
2023-03-10T21:17:42.678Z,0.20
2023-03-10T21:20:10.821Z,0.40
2023-03-10T21:22:39.513Z,0.40
2023-03-10T21:25:09.507Z,0.40
2023-03-10T21:27:36.665Z,0.50
2023-03-10T21:30:09.400Z,0.60
2023-03-10T21:32:37.564Z,0.50
2023-03-10T21:35:05.596Z,0.40
2023-03-10T21:37:32.639Z,0.30
2023-03-10T21:39:59.581Z,0.10
2023-03-10T21:42:26.483Z,0.00
2023-03-10T21:44:55.248Z,0.10
2023-03-10T21:47:22.146Z,0.10
2023-03-10T21:49:49.023Z,0.10
2023-03-10T21:52:16.281Z,0.10
2023-03-10T21:54:43.511Z,0.10
2023-03-10T21:57:10.554Z,0.00
2023-03-10T21:59:37.663Z,0.00
2023-03-10T22:02:04.840Z,0.00
2023-03-10T22:04:32.920Z,0.00
2023-03-10T22:07:00.913Z,-0.10
2023-03-10T22:09:28.524Z,0.10
2023-03-10T22:11:55.531Z,0.20
2023-03-10T22:14:24.595Z,0.30
2023-03-10T22:16:51.606Z,0.30
2023-03-10T22:19:18.948Z,0.30
2023-03-10T22:21:45.861Z,0.20
2023-03-10T22:24:13.945Z,0.20
2023-03-10T22:26:41.002Z,0.20
2023-03-10T22:29:07.965Z,0.20
2023-03-10T22:31:35.049Z,0.30
2023-03-10T22:34:01.938Z,0.20
2023-03-10T22:36:28.877Z,0.30
2023-03-10T22:38:55.880Z,0.30
2023-03-10T22:41:22.826Z,0.20
2023-03-10T22:43:52.094Z,0.20
2023-03-10T22:46:19.183Z,0.20
2023-03-10T22:48:46.126Z,0.20
2023-03-10T22:51:16.713Z,0.20
2023-03-10T22:53:44.291Z,0.10
2023-03-10T22:56:11.402Z,0.20
2023-03-10T22:58:38.353Z,0.30
2023-03-10T23:01:05.771Z,0.30
2023-03-10T23:03:33.729Z,0.30
2023-03-10T23:06:04.227Z,0.30
2023-03-10T23:08:31.100Z,0.50
2023-03-10T23:10:58.023Z,0.50
2023-03-10T23:13:24.978Z,0.50
2023-03-10T23:15:52.090Z,0.60
2023-03-10T23:18:19.845Z,0.60
2023-03-10T23:20:49.177Z,0.60
2023-03-10T23:23:18.296Z,0.60
2023-03-10T23:25:47.968Z,0.60
2023-03-10T23:28:15.794Z,0.60
2023-03-10T23:30:44.873Z,0.60
2023-03-10T23:33:17.878Z,0.60
2023-03-10T23:35:46.407Z,0.70
2023-03-10T23:38:13.450Z,0.70
2023-03-10T23:40:40.356Z,0.80
2023-03-10T23:43:08.160Z,0.70
2023-03-10T23:45:36.620Z,0.70
2023-03-10T23:48:06.207Z,0.60
2023-03-10T23:50:39.720Z,0.70
2023-03-10T23:53:09.540Z,0.80
2023-03-10T23:55:39.519Z,0.70
2023-03-10T23:58:07.000Z,0.70
